createdAt,value
2023-05-18T00:02:18.725Z,69.94
2023-05-18T00:04:45.306Z,69.63
2023-05-18T00:07:12.613Z,69.89
2023-05-18T00:09:39.128Z,70.58
2023-05-18T00:12:06.158Z,70.82
2023-05-18T00:14:32.803Z,70.45
2023-05-18T00:17:01.667Z,70.75
2023-05-18T00:19:29.845Z,70.99
2023-05-18T00:21:57.209Z,71.15
2023-05-18T00:24:23.974Z,71.14
2023-05-18T00:26:50.361Z,72.08
2023-05-18T00:29:16.876Z,71.45
2023-05-18T00:31:45.116Z,71.27
2023-05-18T00:34:13.651Z,71.88
2023-05-18T00:36:41.137Z,72.24
2023-05-18T00:39:09.305Z,71.87
2023-05-18T00:41:36.448Z,72.66
2023-05-18T00:44:04.742Z,72.35
2023-05-18T00:46:31.856Z,72.79
2023-05-18T00:48:58.982Z,72.51
2023-05-18T00:51:26.218Z,72.72
2023-05-18T00:53:54.041Z,72.46
2023-05-18T00:56:25.090Z,72.55
2023-05-18T00:58:55.738Z,72.47
2023-05-18T01:01:30.548Z,72.08
2023-05-18T01:04:04.007Z,71.60
2023-05-18T01:06:32.810Z,71.23
2023-05-18T01:09:04.289Z,70.81
2023-05-18T01:11:57.201Z,70.93
2023-05-18T01:14:45.714Z,71.01
2023-05-18T01:18:00.725Z,70.73
2023-05-18T01:20:53.180Z,71.17
2023-05-18T01:23:52.187Z,71.24
2023-05-18T01:26:37.867Z,71.00
2023-05-18T01:29:06.970Z,71.08
2023-05-18T01:31:34.698Z,71.35
2023-05-18T01:34:01.452Z,71.74
2023-05-18T01:36:27.889Z,71.73
2023-05-18T01:38:56.148Z,71.45
2023-05-18T01:41:28.030Z,71.50
2023-05-18T01:44:23.361Z,71.48
2023-05-18T01:46:58.988Z,71.81
2023-05-18T01:49:39.364Z,72.34
2023-05-18T01:52:19.370Z,72.25
2023-05-18T01:54:50.689Z,72.08
2023-05-18T01:57:20.866Z,71.39
2023-05-18T01:59:48.083Z,71.29
2023-05-18T02:02:15.225Z,71.87
2023-05-18T02:04:41.685Z,72.03
2023-05-18T02:07:08.277Z,72.15
2023-05-18T02:09:34.786Z,73.00
2023-05-18T02:12:01.532Z,73.02
2023-05-18T02:14:28.096Z,72.25
2023-05-18T02:16:54.628Z,72.22
2023-05-18T02:19:21.822Z,72.33
2023-05-18T02:21:49.296Z,71.95
2023-05-18T02:24:15.686Z,72.22
2023-05-18T02:26:42.235Z,72.43
2023-05-18T02:29:11.791Z,72.40
2023-05-18T02:31:38.864Z,72.70
2023-05-18T02:34:05.872Z,72.43
2023-05-18T02:36:37.161Z,72.51
2023-05-18T02:39:07.699Z,72.80
2023-05-18T02:41:34.417Z,72.77
2023-05-18T02:44:02.883Z,73.21
2023-05-18T02:46:30.082Z,73.26
2023-05-18T02:48:57.186Z,73.52
2023-05-18T02:51:24.264Z,73.19
2023-05-18T02:53:51.676Z,72.95
2023-05-18T02:56:18.463Z,73.28
2023-05-18T02:58:45.084Z,73.75
2023-05-18T03:01:14.420Z,73.28
2023-05-18T03:03:42.435Z,73.98
2023-05-18T03:06:09.789Z,74.29
2023-05-18T03:08:37.456Z,74.87
2023-05-18T03:11:04.248Z,74.93
2023-05-18T03:13:30.670Z,74.98
2023-05-18T03:15:57.742Z,75.78
2023-05-18T03:18:25.639Z,75.87
2023-05-18T03:20:52.643Z,76.13
2023-05-18T03:23:20.308Z,76.59
2023-05-18T03:25:46.720Z,76.81
2023-05-18T03:28:13.133Z,77.05
2023-05-18T03:30:39.549Z,76.91
2023-05-18T03:33:05.932Z,77.50
2023-05-18T03:35:32.842Z,77.86
2023-05-18T03:37:59.465Z,77.94
2023-05-18T03:40:25.940Z,78.41
2023-05-18T03:42:52.296Z,78.40
2023-05-18T03:45:18.867Z,78.49
2023-05-18T03:47:45.345Z,79.19
2023-05-18T03:50:11.806Z,80.09
2023-05-18T03:52:39.590Z,80.40
2023-05-18T03:55:06.519Z,80.38
2023-05-18T03:57:33.221Z,80.90
2023-05-18T03:59:59.732Z,80.95
2023-05-18T04:02:26.574Z,81.16
2023-05-18T04:04:54.410Z,81.31
2023-05-18T04:07:22.291Z,81.72
2023-05-18T04:09:49.268Z,81.89
2023-05-18T04:12:15.978Z,82.11
2023-05-18T04:14:42.481Z,82.23
2023-05-18T04:17:10.030Z,82.82
2023-05-18T04:19:37.753Z,82.49
2023-05-18T04:22:05.462Z,82.74
2023-05-18T04:24:35.296Z,82.79
2023-05-18T04:27:02.530Z,82.63
2023-05-18T04:29:29.843Z,82.90
2023-05-18T04:32:03.116Z,82.90
2023-05-18T04:34:30.290Z,83.67
2023-05-18T04:36:58.711Z,84.24
2023-05-18T04:39:25.741Z,84.21
2023-05-18T04:41:58.391Z,84.56
2023-05-18T04:44:27.439Z,84.67
2023-05-18T04:46:54.829Z,84.11
2023-05-18T04:49:22.236Z,83.93
2023-05-18T04:51:55.775Z,83.55
2023-05-18T04:54:26.531Z,82.73
2023-05-18T04:56:53.128Z,82.76
2023-05-18T04:59:19.791Z,82.66
2023-05-18T05:01:46.863Z,82.08
2023-05-18T05:04:13.536Z,82.37
2023-05-18T05:06:40.043Z,82.54
2023-05-18T05:09:06.583Z,82.95
2023-05-18T05:11:33.126Z,82.81
2023-05-18T05:13:59.558Z,82.26
2023-05-18T05:16:26.102Z,82.20
2023-05-18T05:18:52.775Z,81.66
2023-05-18T05:21:19.235Z,81.18
2023-05-18T05:23:45.837Z,80.86
2023-05-18T05:26:12.302Z,79.63
2023-05-18T05:28:38.700Z,79.20
2023-05-18T05:31:05.189Z,78.54
2023-05-18T05:33:31.694Z,78.45
2023-05-18T05:35:58.071Z,77.80
2023-05-18T05:38:24.555Z,77.41
2023-05-18T05:40:52.125Z,77.07
2023-05-18T05:43:18.582Z,76.59
2023-05-18T05:45:45.346Z,75.79
2023-05-18T05:48:13.741Z,75.78
2023-05-18T05:50:40.702Z,74.93
2023-05-18T05:53:07.298Z,75.07
2023-05-18T05:55:40.977Z,74.70
2023-05-18T05:58:09.189Z,74.31
2023-05-18T06:00:36.295Z,74.18
2023-05-18T06:03:02.684Z,73.81
2023-05-18T06:05:29.412Z,74.33
2023-05-18T06:07:57.234Z,74.29
2023-05-18T06:10:23.654Z,73.50
2023-05-18T06:12:50.261Z,73.13
2023-05-18T06:15:16.769Z,72.81
2023-05-18T06:17:44.130Z,72.21
2023-05-18T06:20:11.739Z,72.07
2023-05-18T06:22:38.169Z,71.01
2023-05-18T06:25:04.930Z,70.34
2023-05-18T06:27:31.989Z,70.56
2023-05-18T06:29:58.342Z,69.83
2023-05-18T06:32:25.439Z,69.99
2023-05-18T06:34:52.712Z,68.99
2023-05-18T06:37:20.602Z,68.91
2023-05-18T06:39:46.982Z,68.82
2023-05-18T06:42:13.603Z,68.53
2023-05-18T06:44:40.038Z,66.58
2023-05-18T06:47:06.881Z,65.37
2023-05-18T06:49:33.497Z,65.15
2023-05-18T06:52:00.087Z,64.50
2023-05-18T06:54:26.520Z,64.06
2023-05-18T06:56:53.044Z,63.56
2023-05-18T06:59:19.492Z,63.41
2023-05-18T07:01:46.070Z,63.37
2023-05-18T07:04:12.501Z,63.39
2023-05-18T07:06:39.000Z,62.56
2023-05-18T07:09:05.912Z,62.41
2023-05-18T07:11:32.397Z,62.09
2023-05-18T07:13:58.876Z,62.68
2023-05-18T07:16:27.686Z,61.64
2023-05-18T07:18:54.418Z,60.79
2023-05-18T07:21:20.855Z,61.43
2023-05-18T07:23:47.260Z,60.41
2023-05-18T07:26:13.686Z,60.04
2023-05-18T07:28:40.106Z,59.97
2023-05-18T07:31:06.579Z,59.58
2023-05-18T07:33:33.142Z,59.53
2023-05-18T07:35:59.552Z,59.99
2023-05-18T07:38:26.282Z,59.30
2023-05-18T07:40:52.820Z,59.20
2023-05-18T07:43:19.203Z,60.93
2023-05-18T07:45:45.721Z,59.92
2023-05-18T07:48:12.142Z,59.51
2023-05-18T07:50:38.530Z,59.74
2023-05-18T07:53:04.965Z,60.13
2023-05-18T07:55:31.887Z,58.20
2023-05-18T07:58:00.984Z,57.38
2023-05-18T08:00:27.942Z,57.86
2023-05-18T08:02:54.535Z,57.71
2023-05-18T08:05:22.588Z,57.63
2023-05-18T08:07:49.449Z,56.93
2023-05-18T08:10:15.844Z,55.25
2023-05-18T08:12:42.377Z,56.51
2023-05-18T08:15:09.871Z,56.16
2023-05-18T08:17:36.664Z,55.01
2023-05-18T08:20:04.960Z,54.89
2023-05-18T08:22:31.365Z,54.52
2023-05-18T08:25:00.860Z,54.38
2023-05-18T08:27:29.137Z,52.49
2023-05-18T08:29:55.699Z,52.99
2023-05-18T08:32:22.446Z,53.01
2023-05-18T08:34:52.550Z,52.81
2023-05-18T08:37:19.349Z,52.34
2023-05-18T08:39:46.286Z,51.75
2023-05-18T08:42:22.005Z,51.67
2023-05-18T08:45:13.445Z,49.63
2023-05-18T08:47:41.189Z,49.36
2023-05-18T08:50:13.532Z,49.86
2023-05-18T08:52:47.583Z,50.22
2023-05-18T08:55:17.613Z,49.65
2023-05-18T08:57:50.201Z,49.42
2023-05-18T09:00:17.336Z,49.57
2023-05-18T09:02:43.952Z,47.43
2023-05-18T09:05:12.347Z,48.71
2023-05-18T09:07:42.112Z,48.04
2023-05-18T09:10:12.188Z,48.20
2023-05-18T09:12:41.364Z,47.73
2023-05-18T09:15:13.362Z,47.19
2023-05-18T09:17:41.576Z,47.37
2023-05-18T09:20:08.556Z,46.67
2023-05-18T09:22:35.823Z,46.68
2023-05-18T09:25:08.445Z,47.44
2023-05-18T09:27:34.909Z,47.25
2023-05-18T09:30:01.426Z,47.67
2023-05-18T09:32:28.613Z,47.98
2023-05-18T09:34:55.470Z,47.69
2023-05-18T09:37:22.279Z,45.40
2023-05-18T09:40:02.472Z,45.07
2023-05-18T09:42:36.384Z,45.90
2023-05-18T09:45:04.018Z,45.70
2023-05-18T09:47:30.365Z,45.96
2023-05-18T09:49:57.900Z,45.55
2023-05-18T09:52:25.497Z,46.39
2023-05-18T09:55:02.091Z,45.68
2023-05-18T09:57:28.612Z,45.39
2023-05-18T09:59:56.982Z,45.45
2023-05-18T10:02:25.860Z,45.35
2023-05-18T10:04:52.508Z,44.81
2023-05-18T10:07:18.932Z,43.93
2023-05-18T10:09:46.166Z,43.71
2023-05-18T10:12:13.422Z,44.15
2023-05-18T10:14:46.819Z,44.34
2023-05-18T10:17:16.220Z,44.16
2023-05-18T10:19:44.747Z,43.57
2023-05-18T10:22:12.235Z,43.56
2023-05-18T10:24:41.937Z,43.16
2023-05-18T10:27:10.027Z,43.19
2023-05-18T10:29:37.573Z,42.71
2023-05-18T10:32:07.744Z,42.89
2023-05-18T10:34:35.058Z,43.16
2023-05-18T10:37:05.462Z,43.06
2023-05-18T10:39:34.068Z,43.08
2023-05-18T10:42:00.768Z,42.39
2023-05-18T10:44:27.282Z,42.81
2023-05-18T10:46:54.679Z,42.15
2023-05-18T10:49:26.259Z,42.75
2023-05-18T10:51:55.126Z,42.33
2023-05-18T10:54:23.419Z,42.17
2023-05-18T10:56:53.562Z,42.98
2023-05-18T10:59:23.443Z,43.20
2023-05-18T11:01:53.254Z,43.50
2023-05-18T11:04:32.285Z,42.50
2023-05-18T11:07:00.135Z,41.96
2023-05-18T11:09:29.042Z,42.30
2023-05-18T11:12:00.214Z,43.40
2023-05-18T11:14:28.820Z,43.39
2023-05-18T11:17:25.610Z,42.50
2023-05-18T11:20:04.617Z,42.30
2023-05-18T11:23:01.913Z,42.20
2023-05-18T11:25:28.477Z,42.29
2023-05-18T11:28:01.919Z,42.69
2023-05-18T11:30:28.367Z,42.50
2023-05-18T11:33:08.412Z,42.64
2023-05-18T11:35:54.537Z,42.45
2023-05-18T11:38:21.323Z,42.48
2023-05-18T11:40:49.524Z,42.65
2023-05-18T11:43:26.327Z,42.34
2023-05-18T11:45:55.727Z,42.26
2023-05-18T11:48:24.692Z,41.67
2023-05-18T11:50:55.174Z,41.17
2023-05-18T11:53:26.806Z,41.41
2023-05-18T11:55:54.699Z,41.96
2023-05-18T11:58:24.025Z,42.22
2023-05-18T12:00:50.860Z,41.48
2023-05-18T12:03:18.961Z,41.46
2023-05-18T12:05:49.289Z,40.98
2023-05-18T12:08:19.385Z,40.83
2023-05-18T12:10:48.585Z,41.58
2023-05-18T12:13:17.635Z,41.23
2023-05-18T12:15:44.701Z,41.98
2023-05-18T12:18:11.497Z,41.10
2023-05-18T12:20:41.124Z,40.13
2023-05-18T12:23:07.622Z,40.54
2023-05-18T12:25:34.193Z,40.18
2023-05-18T12:28:01.183Z,40.22
2023-05-18T12:30:38.289Z,40.85
2023-05-18T12:33:04.824Z,41.93
2023-05-18T12:35:32.106Z,41.59
2023-05-18T12:38:02.966Z,41.80
2023-05-18T12:40:44.121Z,41.36
2023-05-18T12:43:10.629Z,42.03
2023-05-18T12:45:37.078Z,41.69
2023-05-18T12:48:07.960Z,41.40
2023-05-18T12:50:35.684Z,41.27
2023-05-18T12:53:02.171Z,40.86
2023-05-18T12:55:30.631Z,41.60
2023-05-18T12:58:19.104Z,41.59
2023-05-18T13:00:47.853Z,41.91
2023-05-18T13:03:16.818Z,41.42
2023-05-18T13:05:45.947Z,40.99
2023-05-18T13:08:21.780Z,41.44
2023-05-18T13:10:58.160Z,41.16
2023-05-18T13:13:32.336Z,41.48
2023-05-18T13:15:59.550Z,41.98
2023-05-18T13:18:27.164Z,40.89
2023-05-18T13:20:58.552Z,41.03
2023-05-18T13:23:28.342Z,40.78
2023-05-18T13:25:57.391Z,41.10
2023-05-18T13:28:24.949Z,40.98
2023-05-18T13:30:51.525Z,41.40
2023-05-18T13:33:19.186Z,41.48
2023-05-18T13:35:46.670Z,41.93
2023-05-18T13:38:14.346Z,41.67
2023-05-18T13:40:41.676Z,41.61
2023-05-18T13:43:10.973Z,42.00
2023-05-18T13:45:39.478Z,41.95
2023-05-18T13:48:09.407Z,41.89
2023-05-18T13:50:36.229Z,41.73
2023-05-18T13:53:02.795Z,42.68
2023-05-18T13:55:29.517Z,42.08
2023-05-18T13:57:56.422Z,41.32
2023-05-18T14:00:23.267Z,40.61
2023-05-18T14:02:49.792Z,41.07
2023-05-18T14:05:16.417Z,41.15
2023-05-18T14:07:43.424Z,41.78
2023-05-18T14:10:11.800Z,41.58
2023-05-18T14:12:38.794Z,41.45
2023-05-18T14:15:05.822Z,41.59
2023-05-18T14:17:34.792Z,41.54
2023-05-18T14:20:01.730Z,41.67
2023-05-18T14:22:28.203Z,41.92
2023-05-18T14:24:54.605Z,41.29
2023-05-18T14:27:21.255Z,41.53
2023-05-18T14:29:48.805Z,41.46
2023-05-18T14:32:15.424Z,41.12
2023-05-18T14:34:41.953Z,41.33
2023-05-18T14:37:08.763Z,41.22
2023-05-18T14:39:35.791Z,41.43
2023-05-18T14:42:02.347Z,41.67
2023-05-18T14:44:28.839Z,41.88
2023-05-18T14:46:55.717Z,41.92
2023-05-18T14:49:22.206Z,42.08
2023-05-18T14:51:49.036Z,42.66
2023-05-18T14:54:15.594Z,42.78
2023-05-18T14:56:41.986Z,43.04
2023-05-18T14:59:08.510Z,42.97
2023-05-18T15:01:34.923Z,43.08
2023-05-18T15:04:01.526Z,43.25
2023-05-18T15:06:28.821Z,43.31
2023-05-18T15:08:55.300Z,43.30
2023-05-18T15:11:22.630Z,42.76
2023-05-18T15:13:52.064Z,43.08
2023-05-18T15:16:19.710Z,43.80
2023-05-18T15:18:46.848Z,43.44
2023-05-18T15:21:13.579Z,43.23
2023-05-18T15:23:40.059Z,42.68
2023-05-18T15:26:08.914Z,43.08
2023-05-18T15:28:35.913Z,43.12
2023-05-18T15:31:02.514Z,43.08
2023-05-18T15:33:28.948Z,43.13
2023-05-18T15:35:55.520Z,43.31
2023-05-18T15:38:21.929Z,43.46
2023-05-18T15:40:48.452Z,43.74
2023-05-18T15:43:14.832Z,44.18
2023-05-18T15:45:41.354Z,44.55
2023-05-18T15:48:08.009Z,44.16
2023-05-18T15:50:34.567Z,44.16
2023-05-18T15:53:00.936Z,44.50
2023-05-18T15:55:27.476Z,44.99
2023-05-18T15:57:53.857Z,45.13
2023-05-18T16:00:23.370Z,44.96
2023-05-18T16:02:50.057Z,45.01
2023-05-18T16:05:16.512Z,44.82
2023-05-18T16:07:42.961Z,44.84
2023-05-18T16:10:09.457Z,44.65
2023-05-18T16:12:36.884Z,45.43
2023-05-18T16:15:03.462Z,44.92
2023-05-18T16:17:29.996Z,44.58
2023-05-18T16:19:56.631Z,44.59
2023-05-18T16:22:23.037Z,44.86
2023-05-18T16:24:49.777Z,44.94
2023-05-18T16:27:16.205Z,44.78
2023-05-18T16:29:42.662Z,45.08
2023-05-18T16:32:09.261Z,45.14
2023-05-18T16:34:35.774Z,45.20
2023-05-18T16:37:02.297Z,45.10
2023-05-18T16:39:28.695Z,45.05
2023-05-18T16:41:55.162Z,44.85
2023-05-18T16:44:21.655Z,44.95
2023-05-18T16:46:48.159Z,44.68
2023-05-18T16:49:14.590Z,44.70
2023-05-18T16:51:41.231Z,44.75
2023-05-18T16:54:07.617Z,44.96
2023-05-18T16:56:35.683Z,44.81
2023-05-18T16:59:03.102Z,44.76
2023-05-18T17:01:30.960Z,44.89
2023-05-18T17:03:57.758Z,45.11
2023-05-18T17:06:25.359Z,45.41
2023-05-18T17:08:57.474Z,45.03
2023-05-18T17:11:26.814Z,45.13
2023-05-18T17:13:53.564Z,45.47
2023-05-18T17:16:21.569Z,45.67
2023-05-18T17:18:48.604Z,45.61
2023-05-18T17:21:15.399Z,45.83
2023-05-18T17:23:41.854Z,45.76
2023-05-18T17:26:08.364Z,45.86
2023-05-18T17:28:34.829Z,45.87
2023-05-18T17:31:01.278Z,46.04
2023-05-18T17:33:27.670Z,46.26
2023-05-18T17:35:54.034Z,46.09
2023-05-18T17:38:22.579Z,46.22
2023-05-18T17:40:49.111Z,46.56
2023-05-18T17:43:15.492Z,46.57
2023-05-18T17:45:42.188Z,46.57
2023-05-18T17:48:08.789Z,47.05
2023-05-18T17:50:37.565Z,47.34
2023-05-18T17:53:04.807Z,47.10
2023-05-18T17:55:31.483Z,47.25
2023-05-18T17:57:59.650Z,47.46
2023-05-18T18:00:26.053Z,47.04
2023-05-18T18:02:52.541Z,47.06
2023-05-18T18:05:19.073Z,46.84
2023-05-18T18:07:45.445Z,47.23
2023-05-18T18:10:11.913Z,47.42
2023-05-18T18:12:38.369Z,47.19
2023-05-18T18:15:05.040Z,47.47
2023-05-18T18:17:31.656Z,47.75
2023-05-18T18:19:58.564Z,47.91
2023-05-18T18:22:24.982Z,48.14
2023-05-18T18:24:51.391Z,48.16
2023-05-18T18:27:19.857Z,47.91
2023-05-18T18:29:46.402Z,48.26
2023-05-18T18:32:12.851Z,48.30
2023-05-18T18:34:39.305Z,48.68
2023-05-18T18:37:05.948Z,48.55
2023-05-18T18:39:32.514Z,49.00
2023-05-18T18:41:59.081Z,48.89
2023-05-18T18:44:25.456Z,48.95
2023-05-18T18:46:52.149Z,49.10
2023-05-18T18:49:18.762Z,49.45
2023-05-18T18:51:47.958Z,49.73
2023-05-18T18:54:14.584Z,49.56
2023-05-18T18:56:40.948Z,49.67
2023-05-18T18:59:07.303Z,50.10
2023-05-18T19:01:34.024Z,50.07
2023-05-18T19:04:00.388Z,50.00
2023-05-18T19:06:27.130Z,50.29
2023-05-18T19:08:53.605Z,50.53
2023-05-18T19:11:21.932Z,50.38
2023-05-18T19:13:48.729Z,50.82
2023-05-18T19:16:17.504Z,50.83
2023-05-18T19:18:44.419Z,50.76
2023-05-18T19:21:11.408Z,51.08
2023-05-18T19:23:37.907Z,51.41
2023-05-18T19:26:04.285Z,51.54
2023-05-18T19:28:30.773Z,51.48
2023-05-18T19:30:57.300Z,51.71
2023-05-18T19:33:23.743Z,51.73
2023-05-18T19:35:51.656Z,52.15
2023-05-18T19:38:18.172Z,52.21
2023-05-18T19:40:44.580Z,52.12
2023-05-18T19:43:11.409Z,52.17
2023-05-18T19:45:37.928Z,52.28
2023-05-18T19:48:04.698Z,52.20
2023-05-18T19:50:31.350Z,52.35
2023-05-18T19:52:57.790Z,52.59
2023-05-18T19:55:24.194Z,52.44
2023-05-18T19:57:50.916Z,52.77
2023-05-18T20:00:17.546Z,52.56
2023-05-18T20:02:43.952Z,52.87
2023-05-18T20:05:12.484Z,52.71
2023-05-18T20:07:39.259Z,53.16
2023-05-18T20:10:05.992Z,52.85
2023-05-18T20:12:32.461Z,53.51
2023-05-18T20:14:59.087Z,52.94
2023-05-18T20:17:25.894Z,53.62
2023-05-18T20:19:53.466Z,53.57
2023-05-18T20:22:20.254Z,53.68
2023-05-18T20:24:46.634Z,53.62
2023-05-18T20:27:16.506Z,53.60
2023-05-18T20:29:42.954Z,53.72
2023-05-18T20:32:09.492Z,53.96
2023-05-18T20:34:36.012Z,53.74
2023-05-18T20:37:02.546Z,53.87
2023-05-18T20:39:29.144Z,53.91
2023-05-18T20:41:57.638Z,54.13
2023-05-18T20:44:24.965Z,54.19
2023-05-18T20:46:53.037Z,54.09
2023-05-18T20:49:22.436Z,54.16
2023-05-18T20:51:49.484Z,54.18
2023-05-18T20:54:17.782Z,54.42
2023-05-18T20:56:44.676Z,54.66
2023-05-18T20:59:12.597Z,54.63
2023-05-18T21:01:39.635Z,54.45
2023-05-18T21:04:06.653Z,54.72
2023-05-18T21:06:34.280Z,55.02
2023-05-18T21:09:01.245Z,54.99
2023-05-18T21:11:27.983Z,55.17
2023-05-18T21:13:54.343Z,55.36
2023-05-18T21:16:20.773Z,55.30
2023-05-18T21:18:47.479Z,55.22
2023-05-18T21:21:13.909Z,55.29
2023-05-18T21:23:40.273Z,55.57
2023-05-18T21:26:06.821Z,55.62
2023-05-18T21:28:33.233Z,55.61
2023-05-18T21:30:59.657Z,55.93
2023-05-18T21:33:26.309Z,55.82
2023-05-18T21:35:52.804Z,55.82
2023-05-18T21:38:19.141Z,55.73
2023-05-18T21:40:46.828Z,56.32
2023-05-18T21:43:13.302Z,56.28
2023-05-18T21:45:40.241Z,56.55
2023-05-18T21:48:06.857Z,56.70
2023-05-18T21:50:34.712Z,56.79
2023-05-18T21:53:03.180Z,57.01
2023-05-18T21:55:31.544Z,57.26
2023-05-18T21:57:58.030Z,57.42
2023-05-18T22:00:24.483Z,57.43
2023-05-18T22:02:51.093Z,57.32
2023-05-18T22:05:18.547Z,57.41
2023-05-18T22:07:45.022Z,57.60
2023-05-18T22:10:11.802Z,57.66
2023-05-18T22:12:40.347Z,57.95
2023-05-18T22:15:07.490Z,58.10
2023-05-18T22:17:34.242Z,58.10
2023-05-18T22:20:00.738Z,58.52
2023-05-18T22:22:30.560Z,58.96
2023-05-18T22:24:57.698Z,58.85
2023-05-18T22:27:24.115Z,59.20
2023-05-18T22:29:50.502Z,59.21
2023-05-18T22:32:17.980Z,59.21
2023-05-18T22:34:44.587Z,58.91
2023-05-18T22:37:11.094Z,59.22
2023-05-18T22:39:37.509Z,59.23
2023-05-18T22:42:04.055Z,59.01
2023-05-18T22:44:30.513Z,59.29
2023-05-18T22:46:57.052Z,59.20
2023-05-18T22:49:23.670Z,59.40
2023-05-18T22:51:50.036Z,59.36
2023-05-18T22:54:16.398Z,59.44
2023-05-18T22:56:42.833Z,59.93
2023-05-18T22:59:11.477Z,60.22
2023-05-18T23:01:38.285Z,60.92
2023-05-18T23:04:04.844Z,60.85
2023-05-18T23:06:31.680Z,60.99
2023-05-18T23:09:00.450Z,61.11
2023-05-18T23:11:28.399Z,60.93
2023-05-18T23:13:54.930Z,61.25
2023-05-18T23:16:22.664Z,61.39
2023-05-18T23:18:50.461Z,61.42
2023-05-18T23:21:17.129Z,61.73
2023-05-18T23:23:45.715Z,62.14
2023-05-18T23:26:12.674Z,62.09
2023-05-18T23:28:39.123Z,62.74
2023-05-18T23:31:05.626Z,63.07
2023-05-18T23:33:32.418Z,63.22
2023-05-18T23:36:03.949Z,62.92
2023-05-18T23:38:35.190Z,63.61
2023-05-18T23:41:03.392Z,64.16
2023-05-18T23:43:30.333Z,64.74
2023-05-18T23:45:59.582Z,64.16
2023-05-18T23:48:32.222Z,64.17
2023-05-18T23:51:01.838Z,64.53
2023-05-18T23:53:32.733Z,65.13
2023-05-18T23:55:59.743Z,65.53
2023-05-18T23:58:31.531Z,65.38
